Kaltag, AK

3:37 PM AKDT on August 30, 2014 (GMT -0800)
Kaltag | Change Station
CLOSE
Current Station
Airport
Location: Kaltag,
Elevation: 200 ft
Nearby Weather Stations

Elev 200 ft 64.32 °N, 158.74 °W | Updated 44 minutes ago

Overcast
Overcast
51 °F
Feels Like 51 °F
N
0
Wind Variable Wind from North

Today
High -- | Low -- °F
--% Chance of Precip.
Yesterday
High -- | Low -- °F
Precip. -- in
7:11 AM 9:57 PM
Waxing Crescent, 25% visible
Pressure 29.79 in
Visibility 10.0 miles
Clouds Overcast 7000 ft
Dew Point 30 °F
Humidity 44%
Rainfall 0.00 in
Snow Depth Not available.
UV 1 out of 12
Pollen Not available.
Air Quality Not available.
Flu Activity Not available.
METAR PAKV 302253Z AUTO 00000KT 10SM OVC070 11/M01 A2978 RMK AO1 SLP088 T01061011 TSNO

More Conditions Fewer Conditions

Pressure 29.79 in
Visibility 10.0 miles
Clouds Overcast 7000 ft
Dew Point 30 °F
Humidity 44%
Rainfall 0.00 in
Snow Depth Not available.
UV 1 out of 12
Pollen Not available.
Air Quality Not available.
Flu Activity Not available.
METAR PAKV 302253Z AUTO 00000KT 10SM OVC070 11/M01 A2978 RMK AO1 SLP088 T01061011 TSNO

More Conditions Fewer Conditions

10-Day Weather Forecast

Almanac

Astronomy

Aug. 30, 2014 Rise Set
Actual Time 7:11 AM AKDT 9:57 PM AKDT
Civil Twilight 6:16 AM AKDT 10:51 PM AKDT
Nautical Twilight 4:58 AM AKDT 12:08 AM AKDT
Astronomical Twilight 3:08 AM AKDT 2:02 AM AKDT
Moon 2:09 PM AKDT 10:35 PM AKDT
Length of Visible Light 16h 34m
Length of Day
14h 45m
Tomorrow will be 6m 33s shorter.
Waxing Crescent, 25% of the Moon is Illuminated
Today
Waxing Crescent
Sep 2
First Quarter
Sep 8
Full
Sep 15
Last Quarter
Sep 24
New

Today's Extremes

State Highs State Lows

Community

WunderPhotos

Upload Photos

1,748,677 photos uploaded!

Nearby

Snow Depth

Station Depth Elevation
Rocky Point 5 in 500 ft
Gobblers Knob 0 in 2030 ft
Susitna Valley High 2 in 375 ft
Coldfoot 0 in 1040 ft
Point Mackenzie 1 in 200 ft

Earthquake Activity

City Distance Mag. Time & Date
No recent earthquake activity has been reported nearby.
Minimum magnitude displayed is 2.5.

Coastal Water Temperatures

Place Temperature
No Stations Reporting

Nearby Weather Stations